createdAt,value
2023-01-29T00:01:47.942Z,97965.47
2023-01-29T00:04:14.470Z,97970.97
2023-01-29T00:06:40.930Z,97964.66
2023-01-29T00:09:07.527Z,97964.50
2023-01-29T00:11:34.939Z,97960.75
2023-01-29T00:14:01.356Z,97968.75
2023-01-29T00:16:27.874Z,97968.09
2023-01-29T00:18:54.417Z,97970.03
2023-01-29T00:21:22.265Z,97968.75
2023-01-29T00:23:49.417Z,97959.94
2023-01-29T00:26:17.138Z,97951.31
2023-01-29T00:28:44.003Z,97957.97
2023-01-29T00:31:15.675Z,97955.91
2023-01-29T00:33:42.091Z,97960.56
2023-01-29T00:36:11.329Z,97965.78
2023-01-29T00:38:38.755Z,97964.19
2023-01-29T00:41:34.399Z,97959.78
2023-01-29T00:44:20.314Z,97968.03
2023-01-29T00:46:46.969Z,97955.38
2023-01-29T00:49:13.685Z,97953.44
2023-01-29T00:51:40.338Z,97949.53
2023-01-29T00:54:07.004Z,97953.94
2023-01-29T00:56:37.513Z,97954.75
2023-01-29T00:59:04.548Z,97950.88
2023-01-29T01:01:49.928Z,97961.28
2023-01-29T01:04:16.598Z,97961.09
2023-01-29T01:06:43.137Z,97957.00
2023-01-29T01:09:29.167Z,97961.56
2023-01-29T01:11:55.663Z,97964.84
2023-01-29T01:14:22.683Z,97954.75
2023-01-29T01:16:49.794Z,97955.06
2023-01-29T01:19:16.722Z,97956.53
2023-01-29T01:21:45.561Z,97954.09
2023-01-29T01:24:12.707Z,97956.19
2023-01-29T01:26:39.181Z,97958.78
2023-01-29T01:29:05.703Z,97954.44
2023-01-29T01:31:32.200Z,97963.66
2023-01-29T01:33:58.689Z,97956.53
2023-01-29T01:36:25.143Z,97949.88
2023-01-29T01:38:51.629Z,97954.41
2023-01-29T01:41:21.770Z,97955.91
2023-01-29T01:43:57.826Z,97950.19
2023-01-29T01:46:28.262Z,97946.31
2023-01-29T01:49:05.764Z,97940.94
2023-01-29T01:51:36.325Z,97941.09
2023-01-29T01:54:25.089Z,97942.38
2023-01-29T01:56:55.636Z,97941.41
2023-01-29T01:59:22.957Z,97926.47
2023-01-29T02:01:54.011Z,97930.06
2023-01-29T02:04:42.158Z,97926.00
2023-01-29T02:07:31.117Z,97929.38
2023-01-29T02:10:08.368Z,97935.38
2023-01-29T02:12:36.923Z,97940.13
2023-01-29T02:15:03.924Z,97948.91
2023-01-29T02:17:31.333Z,97942.75
2023-01-29T02:20:18.662Z,97946.94
2023-01-29T02:22:55.385Z,97945.31
2023-01-29T02:25:52.686Z,97946.94
2023-01-29T02:28:36.544Z,97955.38
2023-01-29T02:31:21.268Z,97946.59
2023-01-29T02:34:06.329Z,97955.38
2023-01-29T02:37:02.739Z,97952.78
2023-01-29T02:39:34.125Z,97956.47
2023-01-29T02:42:06.767Z,97950.94
2023-01-29T02:44:50.963Z,97957.63
2023-01-29T02:47:36.060Z,97962.50
2023-01-29T02:50:21.149Z,97961.88
2023-01-29T02:52:59.752Z,97962.97
2023-01-29T02:55:32.569Z,97955.16
2023-01-29T02:58:07.492Z,97959.41
2023-01-29T03:00:39.572Z,97956.00
2023-01-29T03:03:17.655Z,97965.78
2023-01-29T03:06:07.568Z,97959.94
2023-01-29T03:08:42.978Z,97958.63
2023-01-29T03:11:15.307Z,97961.09
2023-01-29T03:13:57.926Z,97955.06
2023-01-29T03:16:28.056Z,97955.06
2023-01-29T03:19:02.870Z,97954.41
2023-01-29T03:21:55.245Z,97950.13
2023-01-29T03:24:51.119Z,97947.56
2023-01-29T03:27:40.786Z,97936.97
2023-01-29T03:30:28.770Z,97941.00
2023-01-29T03:32:57.647Z,97940.06
2023-01-29T03:35:36.908Z,97939.78
2023-01-29T03:38:06.205Z,97946.91
2023-01-29T03:40:53.655Z,97950.13
2023-01-29T03:43:35.064Z,97953.41
2023-01-29T03:46:29.198Z,97947.53
2023-01-29T03:49:14.517Z,97944.25
2023-01-29T03:51:59.126Z,97951.56
2023-01-29T03:54:35.157Z,97948.88
2023-01-29T03:57:41.671Z,97943.63
2023-01-29T04:03:24.629Z,97948.22
2023-01-29T04:05:58.622Z,97943.78
2023-01-29T04:08:30.786Z,97958.75
2023-01-29T04:11:02.031Z,97952.13
2023-01-29T04:13:33.829Z,97951.63
2023-01-29T04:16:04.174Z,97947.41
2023-01-29T04:18:30.703Z,97950.81
2023-01-29T04:20:57.338Z,97950.94
2023-01-29T04:23:26.514Z,97951.13
2023-01-29T04:26:29.800Z,97953.06
2023-01-29T04:29:15.276Z,97956.34
2023-01-29T04:31:57.811Z,97950.81
2023-01-29T04:34:29.161Z,97953.88
2023-01-29T04:37:12.146Z,97951.75
2023-01-29T04:39:54.793Z,97944.31
2023-01-29T04:42:37.069Z,97948.06
2023-01-29T04:45:25.846Z,97949.16
2023-01-29T04:47:54.965Z,97949.50
2023-01-29T04:50:28.361Z,97947.22
2023-01-29T04:53:07.932Z,97941.06
2023-01-29T04:55:47.460Z,97955.03
2023-01-29T04:58:26.543Z,97947.53
2023-01-29T05:00:55.828Z,97950.47
2023-01-29T05:03:25.977Z,97944.44
2023-01-29T05:05:55.221Z,97936.16
2023-01-29T05:08:24.628Z,97936.31
2023-01-29T05:10:54.806Z,97942.00
2023-01-29T05:13:23.659Z,97946.72
2023-01-29T05:16:16.950Z,97950.94
2023-01-29T05:18:43.727Z,97954.56
2023-01-29T05:21:10.170Z,97950.94
2023-01-29T05:23:37.077Z,97950.94
2023-01-29T05:26:04.413Z,97954.69
2023-01-29T05:28:30.977Z,97939.44
2023-01-29T05:30:58.185Z,97942.84
2023-01-29T05:33:29.918Z,97949.19
2023-01-29T05:35:58.733Z,97947.38
2023-01-29T05:38:25.477Z,97952.09
2023-01-29T05:40:51.920Z,97952.09
2023-01-29T05:43:23.828Z,97942.31
2023-01-29T05:45:54.174Z,97947.53
2023-01-29T05:48:20.788Z,97955.34
2023-01-29T05:50:47.200Z,97951.47
2023-01-29T05:53:13.723Z,97943.44
2023-01-29T05:55:40.098Z,97938.66
2023-01-29T05:58:06.657Z,97944.22
2023-01-29T06:00:33.067Z,97951.09
2023-01-29T06:02:59.979Z,97951.28
2023-01-29T06:05:26.462Z,97946.91
2023-01-29T06:07:52.839Z,97940.53
2023-01-29T06:10:19.702Z,97927.03
2023-01-29T06:12:46.224Z,97921.78
2023-01-29T06:15:13.096Z,97921.81
2023-01-29T06:17:39.687Z,97916.63
2023-01-29T06:20:06.757Z,97911.75
2023-01-29T06:22:33.716Z,97917.25
2023-01-29T06:25:00.435Z,97915.38
2023-01-29T06:27:26.947Z,97913.41
2023-01-29T06:29:53.330Z,97914.75
2023-01-29T06:32:19.863Z,97917.19
2023-01-29T06:34:48.617Z,97923.06
2023-01-29T06:37:16.037Z,97925.59
2023-01-29T06:39:42.620Z,97930.53
2023-01-29T06:42:10.052Z,97933.47
2023-01-29T06:44:36.877Z,97945.22
2023-01-29T06:47:03.357Z,97939.69
2023-01-29T06:49:29.889Z,97934.81
2023-01-29T06:51:56.708Z,97941.00
2023-01-29T06:54:23.235Z,97937.75
2023-01-29T06:56:49.706Z,97939.06
2023-01-29T06:59:16.330Z,97953.69
2023-01-29T07:01:44.272Z,97956.97
2023-01-29T07:04:11.479Z,97947.19
2023-01-29T07:06:38.032Z,97944.94
2023-01-29T07:09:04.908Z,97949.19
2023-01-29T07:11:32.043Z,97955.47
2023-01-29T07:13:58.654Z,97949.31
2023-01-29T07:16:26.262Z,97956.94
2023-01-29T07:18:53.092Z,97962.84
2023-01-29T07:21:19.537Z,97962.03
2023-01-29T07:23:46.504Z,97958.91
2023-01-29T07:26:12.995Z,97958.22
2023-01-29T07:28:40.891Z,97968.31
2023-01-29T07:31:08.571Z,97967.78
2023-01-29T07:33:35.257Z,97967.97
2023-01-29T07:36:01.890Z,97971.25
2023-01-29T07:38:28.344Z,97962.31
2023-01-29T07:40:55.047Z,97964.09
2023-01-29T07:43:21.556Z,97957.63
2023-01-29T07:45:48.055Z,97962.84
2023-01-29T07:48:14.664Z,97974.56
2023-01-29T07:50:41.766Z,97976.41
2023-01-29T07:53:15.975Z,97983.53
2023-01-29T07:55:45.695Z,97986.13
2023-01-29T07:58:13.521Z,97991.00
2023-01-29T08:00:40.248Z,97996.69
2023-01-29T08:03:11.488Z,97989.84
2023-01-29T08:05:38.157Z,98000.63
2023-01-29T08:08:07.322Z,98000.66
2023-01-29T08:10:38.574Z,97997.09
2023-01-29T08:13:05.882Z,98010.44
2023-01-29T08:15:35.184Z,98004.09
2023-01-29T08:18:05.529Z,98000.66
2023-01-29T08:20:32.091Z,97998.75
2023-01-29T08:23:04.521Z,97997.31
2023-01-29T08:25:31.416Z,97997.16
2023-01-29T08:27:59.296Z,98001.63
2023-01-29T08:30:27.851Z,97997.41
2023-01-29T08:32:56.120Z,97991.91
2023-01-29T08:35:23.227Z,97991.63
2023-01-29T08:37:59.355Z,97992.28
2023-01-29T08:40:27.408Z,97999.75
2023-01-29T08:43:02.512Z,98004.97
2023-01-29T08:45:34.715Z,97999.75
2023-01-29T08:48:01.529Z,98007.06
2023-01-29T08:50:30.622Z,98014.72
2023-01-29T08:52:59.196Z,98016.66
2023-01-29T08:55:26.467Z,98014.66
2023-01-29T08:57:52.949Z,98012.00
2023-01-29T09:00:19.934Z,98017.84
2023-01-29T09:02:46.615Z,98013.41
2023-01-29T09:05:13.092Z,98024.78
2023-01-29T09:07:39.550Z,98021.22
2023-01-29T09:10:06.240Z,98021.22
2023-01-29T09:12:32.673Z,98025.91
2023-01-29T09:14:59.229Z,98033.63
2023-01-29T09:17:25.733Z,98024.47
2023-01-29T09:19:53.071Z,98030.34
2023-01-29T09:22:20.421Z,98030.31
2023-01-29T09:24:46.982Z,98039.72
2023-01-29T09:27:13.440Z,98034.47
2023-01-29T09:29:39.973Z,98035.84
2023-01-29T09:32:06.879Z,98039.09
2023-01-29T09:34:33.953Z,98041.75
2023-01-29T09:37:00.411Z,98040.84
2023-01-29T09:39:26.894Z,98040.03
2023-01-29T09:42:11.511Z,98039.75
2023-01-29T09:45:14.028Z,98034.56
2023-01-29T09:47:40.663Z,98031.00
2023-01-29T09:50:32.873Z,98037.50
2023-01-29T09:53:07.324Z,98039.09
2023-01-29T09:55:42.063Z,98037.16
2023-01-29T09:58:25.732Z,98024.38
2023-01-29T10:01:08.051Z,98023.19
2023-01-29T10:03:55.193Z,98022.31
2023-01-29T10:06:27.602Z,98017.41
2023-01-29T10:09:18.347Z,98014.97
2023-01-29T10:12:23.458Z,98016.63
2023-01-29T10:15:12.105Z,98008.56
2023-01-29T10:18:03.006Z,97998.53
2023-01-29T10:20:44.161Z,97994.06
2023-01-29T10:23:35.494Z,97985.44
2023-01-29T10:26:02.260Z,97976.13
2023-01-29T10:28:38.081Z,97962.97
2023-01-29T10:31:11.559Z,97960.94
2023-01-29T10:33:54.533Z,97958.41
2023-01-29T10:36:35.887Z,97961.91
2023-01-29T10:39:02.448Z,97958.47
2023-01-29T10:41:44.668Z,97971.38
2023-01-29T10:44:29.974Z,97968.03
2023-01-29T10:47:12.502Z,97965.44
2023-01-29T10:49:57.706Z,97972.25
2023-01-29T10:52:33.076Z,97969.69
2023-01-29T10:55:27.423Z,97982.25
2023-01-29T10:58:15.637Z,97969.75
2023-01-29T11:00:42.681Z,97967.84
2023-01-29T11:03:26.856Z,97965.63
2023-01-29T11:06:05.120Z,97963.34
2023-01-29T11:08:41.626Z,97956.84
2023-01-29T11:11:19.043Z,97960.34
2023-01-29T11:14:05.151Z,97952.94
2023-01-29T11:16:33.369Z,97948.78
2023-01-29T11:19:01.145Z,97949.38
2023-01-29T11:21:29.266Z,97948.47
2023-01-29T11:24:15.773Z,97940.38
2023-01-29T11:26:43.551Z,97945.84
2023-01-29T11:29:34.463Z,97951.16
2023-01-29T11:32:05.477Z,97957.88
2023-01-29T11:34:31.927Z,97957.47
2023-01-29T11:37:06.936Z,97956.13
2023-01-29T11:39:33.404Z,97956.22
2023-01-29T11:42:04.755Z,97954.53
2023-01-29T11:44:41.036Z,97946.22
2023-01-29T11:47:16.237Z,97945.56
2023-01-29T11:49:51.276Z,97941.34
2023-01-29T11:52:20.808Z,97945.06
2023-01-29T11:54:58.346Z,97940.34
2023-01-29T11:57:30.290Z,97935.97
2023-01-29T12:00:06.745Z,97928.81
2023-01-29T12:02:38.749Z,97913.06
2023-01-29T12:05:18.033Z,97918.56
2023-01-29T12:07:50.353Z,97914.03
2023-01-29T12:10:41.042Z,97914.56
2023-01-29T12:13:21.450Z,97909.69
2023-01-29T12:15:49.172Z,97909.22
2023-01-29T12:18:37.748Z,97913.97
2023-01-29T12:21:05.063Z,97903.47
2023-01-29T12:23:32.256Z,97898.00
2023-01-29T12:26:01.702Z,97897.59
2023-01-29T12:29:15.852Z,97885.22
2023-01-29T12:32:11.362Z,97886.34
2023-01-29T12:35:17.288Z,97876.38
2023-01-29T12:38:21.720Z,97868.28
2023-01-29T12:40:55.245Z,97861.91
2023-01-29T12:43:32.762Z,97854.19
2023-01-29T12:46:01.471Z,97842.47
2023-01-29T12:48:33.045Z,97833.41
2023-01-29T12:51:20.654Z,97821.41
2023-01-29T12:54:21.649Z,97812.41
2023-01-29T12:56:53.069Z,97803.16
2023-01-29T12:59:31.710Z,97801.94
2023-01-29T13:02:11.283Z,97795.09
2023-01-29T13:04:48.650Z,97781.19
2023-01-29T13:07:20.709Z,97780.50
2023-01-29T13:09:53.035Z,97782.63
2023-01-29T13:12:21.547Z,97773.06
2023-01-29T13:15:06.739Z,97771.56
2023-01-29T13:17:38.026Z,97774.09
2023-01-29T13:20:21.159Z,97763.94
2023-01-29T13:22:50.411Z,97766.00
2023-01-29T13:25:22.231Z,97772.38
2023-01-29T13:27:49.418Z,97774.72
2023-01-29T13:30:30.539Z,97777.41
2023-01-29T13:33:09.434Z,97776.13
2023-01-29T13:35:42.860Z,97771.28
2023-01-29T13:38:26.842Z,97768.72
2023-01-29T13:40:56.651Z,97768.97
2023-01-29T13:43:24.036Z,97775.81
2023-01-29T13:45:53.918Z,97764.75
2023-01-29T13:48:26.879Z,97770.47
2023-01-29T13:50:56.394Z,97762.50
2023-01-29T13:53:27.276Z,97766.69
2023-01-29T13:55:53.736Z,97764.56
2023-01-29T13:58:32.061Z,97768.94
2023-01-29T14:01:01.478Z,97766.16
2023-01-29T14:03:29.938Z,97777.69
2023-01-29T14:06:02.587Z,97786.50
2023-01-29T14:08:35.124Z,97784.50
2023-01-29T14:11:35.057Z,97790.56
2023-01-29T14:14:01.566Z,97785.72
2023-01-29T14:16:34.910Z,97784.50
2023-01-29T14:19:04.643Z,97785.56
2023-01-29T14:21:33.962Z,97791.25
2023-01-29T14:24:18.394Z,97789.13
2023-01-29T14:26:47.653Z,97782.81
2023-01-29T14:29:35.084Z,97788.00
2023-01-29T14:32:07.635Z,97788.84
2023-01-29T14:34:41.586Z,97799.53
2023-01-29T14:37:17.067Z,97795.56
2023-01-29T14:39:56.217Z,97791.97
2023-01-29T14:42:24.697Z,97800.09
2023-01-29T14:44:57.258Z,97801.91
2023-01-29T14:47:33.021Z,97792.31
2023-01-29T14:50:01.807Z,97794.66
2023-01-29T14:52:43.041Z,97791.50
2023-01-29T14:55:20.992Z,97788.78
2023-01-29T14:57:49.151Z,97790.63
2023-01-29T15:00:27.351Z,97792.75
2023-01-29T15:03:02.003Z,97786.53
2023-01-29T15:05:35.893Z,97789.00
2023-01-29T15:08:19.964Z,97790.16
2023-01-29T15:11:13.589Z,97793.28
2023-01-29T15:13:58.612Z,97790.28
2023-01-29T15:16:31.228Z,97788.94
2023-01-29T15:19:12.861Z,97773.91
2023-01-29T15:21:39.341Z,97774.19
2023-01-29T15:24:07.091Z,97777.59
2023-01-29T15:26:35.871Z,97777.25
2023-01-29T15:29:04.578Z,97776.91
2023-01-29T15:31:32.128Z,97789.88
2023-01-29T15:34:04.994Z,97780.53
2023-01-29T15:36:32.111Z,97787.72
2023-01-29T15:39:23.499Z,97778.22
2023-01-29T15:41:52.100Z,97780.19
2023-01-29T15:44:21.782Z,97781.78
2023-01-29T15:46:57.821Z,97780.31
2023-01-29T15:49:31.078Z,97773.97
2023-01-29T15:52:04.467Z,97771.06
2023-01-29T15:54:33.033Z,97767.84
2023-01-29T15:57:00.596Z,97763.94
2023-01-29T15:59:34.678Z,97767.84
2023-01-29T16:02:32.860Z,97777.25
2023-01-29T16:04:59.878Z,97778.56
2023-01-29T16:07:27.629Z,97778.75
2023-01-29T16:09:55.464Z,97785.22
2023-01-29T16:12:22.726Z,97785.38
2023-01-29T16:14:50.416Z,97786.34
2023-01-29T16:17:40.789Z,97780.66
2023-01-29T16:20:28.295Z,97774.13
2023-01-29T16:22:54.892Z,97759.63
2023-01-29T16:25:21.423Z,97755.06
2023-01-29T16:27:48.039Z,97754.75
2023-01-29T16:30:16.483Z,97760.25
2023-01-29T16:32:43.145Z,97756.38
2023-01-29T16:35:16.554Z,97763.19
2023-01-29T16:37:48.596Z,97763.00
2023-01-29T16:40:37.654Z,97761.50
2023-01-29T16:43:19.375Z,97766.38
2023-01-29T16:46:05.847Z,97772.84
2023-01-29T16:48:35.175Z,97773.47
2023-01-29T16:51:26.718Z,97771.16
2023-01-29T16:54:01.696Z,97771.28
2023-01-29T16:56:31.062Z,97783.88
2023-01-29T16:58:58.625Z,97779.13
2023-01-29T17:01:28.595Z,97776.47
2023-01-29T17:04:09.984Z,97773.72
2023-01-29T17:06:36.816Z,97776.34
2023-01-29T17:09:04.677Z,97784.81
2023-01-29T17:11:41.729Z,97782.75
2023-01-29T17:14:09.574Z,97786.09
2023-01-29T17:16:46.742Z,97778.25
2023-01-29T17:19:18.426Z,97790.19
2023-01-29T17:21:45.129Z,97783.91
2023-01-29T17:24:11.589Z,97784.31
2023-01-29T17:26:39.030Z,97779.47
2023-01-29T17:29:05.531Z,97783.34
2023-01-29T17:31:32.049Z,97790.16
2023-01-29T17:33:58.457Z,97786.91
2023-01-29T17:36:25.783Z,97781.22
2023-01-29T17:38:52.227Z,97781.50
2023-01-29T17:41:25.176Z,97782.91
2023-01-29T17:43:51.821Z,97788.56
2023-01-29T17:46:19.447Z,97788.69
2023-01-29T17:48:46.654Z,97792.28
2023-01-29T17:51:16.087Z,97793.00
2023-01-29T17:53:45.971Z,97792.53
2023-01-29T17:56:23.831Z,97790.88
2023-01-29T17:58:50.395Z,97786.44
2023-01-29T18:01:16.799Z,97777.88
2023-01-29T18:03:43.515Z,97780.09
2023-01-29T18:06:24.300Z,97783.44
2023-01-29T18:08:50.755Z,97781.91
2023-01-29T18:11:17.303Z,97785.47
2023-01-29T18:13:43.697Z,97785.22
2023-01-29T18:16:10.168Z,97788.63
2023-01-29T18:18:36.691Z,97784.28
2023-01-29T18:21:03.226Z,97793.00
2023-01-29T18:23:31.302Z,97795.44
2023-01-29T18:25:57.823Z,97796.63
2023-01-29T18:28:24.718Z,97789.31
2023-01-29T18:30:51.266Z,97791.50
2023-01-29T18:33:18.075Z,97789.38
2023-01-29T18:35:45.260Z,97790.50
2023-01-29T18:38:12.720Z,97792.09
2023-01-29T18:40:39.425Z,97785.59
2023-01-29T18:43:06.057Z,97780.72
2023-01-29T18:45:32.681Z,97777.53
2023-01-29T18:47:59.283Z,97772.13
2023-01-29T18:50:26.440Z,97766.97
2023-01-29T18:52:55.499Z,97770.88
2023-01-29T18:55:22.854Z,97769.78
2023-01-29T18:58:26.084Z,97768.28
2023-01-29T19:00:43.771Z,97767.09
2023-01-29T19:03:10.680Z,97769.53
2023-01-29T19:05:37.275Z,97770.91
2023-01-29T19:08:05.282Z,97768.00
2023-01-29T19:10:31.738Z,97764.22
2023-01-29T19:12:58.423Z,97769.47
2023-01-29T19:15:25.018Z,97770.38
2023-01-29T19:17:51.650Z,97767.91
2023-01-29T19:20:18.339Z,97765.25
2023-01-29T19:22:45.116Z,97760.44
2023-01-29T19:25:12.814Z,97763.09
2023-01-29T19:27:39.450Z,97764.59
2023-01-29T19:30:06.349Z,97763.84
2023-01-29T19:32:33.341Z,97755.41
2023-01-29T19:34:59.781Z,97761.25
2023-01-29T19:37:26.217Z,97764.47
2023-01-29T19:39:53.806Z,97767.44
2023-01-29T19:42:20.945Z,97773.47
2023-01-29T19:44:47.653Z,97774.03
2023-01-29T19:47:14.178Z,97783.00
2023-01-29T19:49:40.664Z,97783.38
2023-01-29T19:52:14.882Z,97781.84
2023-01-29T19:54:46.074Z,97786.94
2023-01-29T19:57:12.501Z,97789.16
2023-01-29T19:59:39.207Z,97792.72
2023-01-29T20:02:06.259Z,97790.03
2023-01-29T20:04:32.860Z,97787.34
2023-01-29T20:06:59.551Z,97792.72
2023-01-29T20:09:26.119Z,97793.41
2023-01-29T20:11:52.563Z,97792.03
2023-01-29T20:14:19.017Z,97788.75
2023-01-29T20:16:45.411Z,97787.75
2023-01-29T20:19:14.011Z,97789.28
2023-01-29T20:21:41.825Z,97793.91
2023-01-29T20:24:12.375Z,97795.66
2023-01-29T20:26:39.093Z,97798.00
2023-01-29T20:29:06.493Z,97800.25
2023-01-29T20:31:33.285Z,97794.31
2023-01-29T20:33:59.807Z,97803.69
2023-01-29T20:36:26.334Z,97803.84
2023-01-29T20:38:52.793Z,97803.13
2023-01-29T20:41:19.856Z,97803.31
2023-01-29T20:43:47.059Z,97802.41
2023-01-29T20:46:14.182Z,97799.44
2023-01-29T20:48:42.006Z,97788.88
2023-01-29T20:51:13.062Z,97777.19
2023-01-29T20:53:41.121Z,97772.97
2023-01-29T20:56:08.950Z,97776.19
2023-01-29T20:58:37.566Z,97768.88
2023-01-29T21:01:12.188Z,97769.53
2023-01-29T21:03:39.836Z,97767.19
2023-01-29T21:06:08.575Z,97761.91
2023-01-29T21:08:35.841Z,97751.09
2023-01-29T21:11:03.332Z,97746.09
2023-01-29T21:13:29.856Z,97741.72
2023-01-29T21:15:56.340Z,97739.28
2023-01-29T21:18:22.933Z,97734.38
2023-01-29T21:20:50.152Z,97729.66
2023-01-29T21:23:16.717Z,97727.81
2023-01-29T21:25:43.211Z,97728.94
2023-01-29T21:28:09.689Z,97725.91
2023-01-29T21:30:36.209Z,97717.31
2023-01-29T21:33:03.266Z,97722.13
2023-01-29T21:35:29.836Z,97731.22
2023-01-29T21:37:56.312Z,97728.28
2023-01-29T21:40:25.196Z,97722.47
2023-01-29T21:43:10.698Z,97728.06
2023-01-29T21:45:38.529Z,97713.47
2023-01-29T21:48:05.598Z,97721.63
2023-01-29T21:50:32.384Z,97722.31
2023-01-29T21:52:58.806Z,97722.75
2023-01-29T21:55:25.406Z,97722.06
2023-01-29T21:57:52.028Z,97719.28
2023-01-29T22:00:19.260Z,97725.84
2023-01-29T22:02:46.416Z,97719.78
2023-01-29T22:05:19.323Z,97721.00
2023-01-29T22:07:46.868Z,97716.63
2023-01-29T22:10:13.640Z,97723.03
2023-01-29T22:12:40.489Z,97730.59
2023-01-29T22:15:08.182Z,97721.75
2023-01-29T22:17:35.293Z,97724.47
2023-01-29T22:20:01.968Z,97717.53
2023-01-29T22:22:28.616Z,97716.44
2023-01-29T22:24:56.399Z,97723.28
2023-01-29T22:27:22.869Z,97718.25
2023-01-29T22:29:49.322Z,97716.06
2023-01-29T22:32:16.275Z,97710.78
2023-01-29T22:34:42.705Z,97719.88
2023-01-29T22:37:09.309Z,97706.75
2023-01-29T22:39:35.715Z,97705.94
2023-01-29T22:42:02.196Z,97699.19
2023-01-29T22:44:28.652Z,97683.88
2023-01-29T22:46:55.097Z,97695.53
2023-01-29T22:49:21.531Z,97704.66
2023-01-29T22:51:48.111Z,97709.56
2023-01-29T22:54:15.523Z,97709.53
2023-01-29T22:56:42.052Z,97707.13
2023-01-29T22:59:10.121Z,97692.06
2023-01-29T23:01:36.725Z,97690.63
2023-01-29T23:04:03.227Z,97691.47
2023-01-29T23:06:29.710Z,97688.72
2023-01-29T23:08:56.161Z,97689.22
2023-01-29T23:11:23.541Z,97680.47
2023-01-29T23:13:52.545Z,97682.81
2023-01-29T23:16:21.122Z,97669.47
2023-01-29T23:18:49.785Z,97663.31
2023-01-29T23:21:16.257Z,97660.31
2023-01-29T23:23:44.936Z,97657.63
2023-01-29T23:26:30.945Z,97638.69
2023-01-29T23:28:57.682Z,97640.69
2023-01-29T23:31:24.537Z,97634.84
2023-01-29T23:33:51.045Z,97630.72
2023-01-29T23:36:17.618Z,97631.13
2023-01-29T23:38:44.094Z,97628.13
2023-01-29T23:41:10.608Z,97629.53
2023-01-29T23:43:37.020Z,97615.00
2023-01-29T23:46:03.397Z,97608.31
2023-01-29T23:48:29.924Z,97601.72
2023-01-29T23:50:56.414Z,97595.13
2023-01-29T23:53:22.932Z,97597.31
2023-01-29T23:56:00.193Z,97591.97
2023-01-29T23:58:26.703Z,97592.66
